Time;durP1;ratioP1;P1;durP2;ratioP2;P2;SDS_P1;SDS_P2;PMS_P1;PMS_P2;Temp;Humidity;BMP_temperature;BMP_pressure;BME280_temperature;BME280_humidity;BME280_pressure;Samples;Min_cycle;Max_cycle;Signal;HPM_P1;HPM_P2
2022/02/12 00:02:14;;;;;;;18.08;11.30;;;5.90;99.90;;;;;;5092413;28;20039;-75
2022/02/12 00:04:39;;;;;;;23.35;11.48;;;6.00;99.90;;;;;;5093234;28;20048;-75
2022/02/12 00:07:05;;;;;;;16.70;11.20;;;6.00;99.90;;;;;;5093775;28;20064;-74
2022/02/12 00:09:31;;;;;;;22.00;12.13;;;5.90;99.90;;;;;;5094392;28;20038;-74
2022/02/12 00:11:56;;;;;;;18.85;11.65;;;5.90;99.90;;;;;;5093768;28;20024;-73
2022/02/12 00:14:23;;;;;;;16.58;10.35;;;5.90;99.90;;;;;;5093743;28;20478;-74
2022/02/12 00:16:48;;;;;;;16.60;10.18;;;5.90;99.90;;;;;;5093995;28;20028;-75
2022/02/12 00:19:14;;;;;;;21.98;13.00;;;5.90;99.90;;;;;;5093698;28;20020;-75
2022/02/12 00:21:40;;;;;;;27.98;16.00;;;5.80;99.90;;;;;;5093673;28;20032;-74
2022/02/12 00:24:06;;;;;;;25.88;15.18;;;5.70;99.90;;;;;;5093600;28;20027;-74
2022/02/12 00:26:32;;;;;;;31.33;16.52;;;5.70;99.90;;;;;;5093431;28;20119;-73
2022/02/12 00:28:58;;;;;;;29.13;14.40;;;5.60;99.90;;;;;;5093806;28;20051;-74
2022/02/12 00:31:24;;;;;;;34.80;17.77;;;5.50;99.90;;;;;;5093559;28;20551;-75
2022/02/12 00:33:50;;;;;;;26.85;15.68;;;5.50;99.90;;;;;;5093474;28;20013;-75
2022/02/12 00:36:15;;;;;;;24.35;14.73;;;5.40;99.90;;;;;;5094023;28;20035;-74
2022/02/12 00:38:41;;;;;;;22.95;13.20;;;5.60;99.90;;;;;;5093371;28;20389;-74
2022/02/12 00:41:07;;;;;;;18.15;11.10;;;5.40;99.90;;;;;;5093389;28;20104;-73
2022/02/12 00:43:32;;;;;;;20.50;13.20;;;5.30;99.90;;;;;;5093616;28;20025;-74
2022/02/12 00:45:58;;;;;;;24.10;14.02;;;5.30;99.90;;;;;;5093240;28;20101;-75
2022/02/12 00:48:24;;;;;;;18.48;10.75;;;5.40;99.90;;;;;;5093281;28;20024;-74
2022/02/12 00:50:49;;;;;;;16.38;9.15;;;5.30;99.90;;;;;;5093537;28;20371;-74
2022/02/12 00:53:15;;;;;;;16.77;9.32;;;5.20;99.90;;;;;;5093237;28;20016;-75
2022/02/12 00:55:41;;;;;;;17.73;9.15;;;5.10;99.90;;;;;;5093220;28;20028;-74
2022/02/12 00:58:06;;;;;;;23.52;13.50;;;5.10;99.90;;;;;;5093188;28;20031;-73
2022/02/12 01:00:33;;;;;;;26.63;15.55;;;5.10;99.90;;;;;;5093210;28;20114;-74
2022/02/12 01:03:01;;;;;;;27.23;17.48;;;5.00;99.90;;;;;;5093208;28;20512;-74
2022/02/12 01:05:27;;;;;;;31.55;16.42;;;4.70;99.90;;;;;;5093491;28;20071;-74
2022/02/12 01:07:52;;;;;;;21.02;11.77;;;4.60;99.90;;;;;;5093157;28;20052;-74
2022/02/12 01:10:18;;;;;;;18.90;11.75;;;4.50;99.90;;;;;;5093191;28;20417;-74
2022/02/12 01:12:44;;;;;;;20.13;11.35;;;4.50;99.90;;;;;;5093064;28;20020;-74
2022/02/12 01:15:10;;;;;;;16.48;10.40;;;4.50;99.90;;;;;;5093376;28;20032;-74
2022/02/12 01:17:37;;;;;;;15.77;10.32;;;4.30;99.90;;;;;;5093294;28;20362;-75
2022/02/12 01:20:03;;;;;;;16.92;9.82;;;4.40;99.90;;;;;;5093332;28;20028;-74
2022/02/12 01:22:29;;;;;;;17.95;10.57;;;4.50;99.90;;;;;;5093028;28;20050;-74
2022/02/12 01:24:55;;;;;;;17.17;10.48;;;4.40;99.90;;;;;;5092995;28;20035;-73
2022/02/12 01:27:21;;;;;;;16.70;10.25;;;4.40;99.90;;;;;;5092907;28;20031;-74
2022/02/12 01:29:47;;;;;;;18.45;10.23;;;4.50;99.90;;;;;;5092976;28;20032;-74
2022/02/12 01:32:13;;;;;;;19.85;10.82;;;4.50;99.90;;;;;;5092949;28;20137;-75
2022/02/12 01:34:39;;;;;;;14.88;10.23;;;4.60;99.90;;;;;;5092895;28;20021;-75
2022/02/12 01:37:06;;;;;;;15.95;10.27;;;4.70;99.90;;;;;;5093136;28;20024;-73
2022/02/12 01:39:32;;;;;;;20.40;10.82;;;4.70;99.90;;;;;;5093116;28;20388;-74
2022/02/12 01:41:59;;;;;;;15.50;10.32;;;4.70;99.90;;;;;;5092798;28;20389;-74
2022/02/12 01:44:38;;;;;;;19.08;10.13;;;4.70;99.90;;;;;;5092838;28;20111;-74
2022/02/12 01:47:05;;;;;;;15.43;10.52;;;4.90;99.90;;;;;;5092986;28;20070;-74
2022/02/12 01:49:31;;;;;;;18.13;10.63;;;4.90;99.90;;;;;;5092747;28;20575;-75
2022/02/12 01:51:58;;;;;;;14.70;10.57;;;4.90;99.90;;;;;;5092732;28;20021;-75
2022/02/12 01:54:25;;;;;;;19.48;11.35;;;5.00;99.90;;;;;;5092667;28;20490;-74
2022/02/12 01:56:52;;;;;;;17.25;10.18;;;4.90;99.90;;;;;;5091369;28;20427;-74
2022/02/12 01:59:22;;;;;;;17.45;10.73;;;4.80;99.90;;;;;;5096307;28;20528;-75
2022/02/12 02:01:48;;;;;;;15.82;10.80;;;4.50;99.90;;;;;;5096245;28;20062;-73
2022/02/12 02:04:15;;;;;;;20.45;11.45;;;4.30;99.90;;;;;;5096031;28;20052;-74
2022/02/12 02:06:42;;;;;;;22.48;12.43;;;4.20;99.90;;;;;;5096095;28;20020;-74
2022/02/12 02:09:09;;;;;;;18.80;12.93;;;4.20;99.90;;;;;;5096182;28;20024;-75
2022/02/12 02:11:35;;;;;;;20.10;13.15;;;4.10;99.90;;;;;;5094782;28;20393;-74
2022/02/12 02:14:01;;;;;;;20.73;12.15;;;4.20;99.90;;;;;;5096054;28;20016;-74
2022/02/12 02:16:27;;;;;;;25.83;13.65;;;4.30;99.90;;;;;;5095960;28;20016;-75
2022/02/12 02:18:53;;;;;;;20.67;12.95;;;4.30;99.90;;;;;;5095892;28;20039;-74
2022/02/12 02:21:22;;;;;;;23.33;13.05;;;4.20;99.90;;;;;;5094617;28;20051;-74
2022/02/12 02:23:47;;;;;;;19.45;12.60;;;4.20;99.90;;;;;;5095891;28;20429;-73
2022/02/12 02:26:14;;;;;;;22.88;13.10;;;4.20;99.90;;;;;;5095817;28;20020;-73
2022/02/12 02:28:40;;;;;;;20.15;11.90;;;4.20;99.90;;;;;;5095663;28;20024;-75
2022/02/12 02:31:06;;;;;;;18.42;12.35;;;4.20;99.90;;;;;;5095725;28;20027;-75
2022/02/12 02:33:31;;;;;;;21.15;12.80;;;4.20;99.90;;;;;;5095642;28;20031;-73
2022/02/12 02:35:57;;;;;;;21.25;11.65;;;4.20;99.90;;;;;;5095606;28;20031;-74
2022/02/12 02:38:24;;;;;;;23.38;13.82;;;4.20;99.90;;;;;;5095591;28;20024;-75
2022/02/12 02:40:52;;;;;;;22.27;13.43;;;4.20;99.90;;;;;;5095548;28;20047;-75
2022/02/12 02:43:18;;;;;;;20.10;12.48;;;4.20;99.90;;;;;;5095476;28;20032;-74
2022/02/12 02:45:44;;;;;;;17.08;11.77;;;4.20;99.90;;;;;;5095192;28;20081;-75
2022/02/12 02:48:09;;;;;;;20.80;13.63;;;4.30;99.90;;;;;;5095840;28;20024;-74
2022/02/12 02:56:10;;;;;;;19.00;12.15;;;4.20;99.90;;;;;;5095250;28;20069;-74
2022/02/12 02:58:48;;;;;;;17.55;11.02;;;4.20;99.90;;;;;;5095524;28;20049;-74
2022/02/12 03:01:15;;;;;;;21.27;12.38;;;4.30;99.90;;;;;;5095466;28;20051;-75
2022/02/12 03:03:44;;;;;;;17.95;11.27;;;4.30;99.90;;;;;;5095196;28;20052;-75
2022/02/12 03:06:11;;;;;;;18.55;10.20;;;4.30;99.90;;;;;;5095057;28;20575;-74
2022/02/12 03:08:37;;;;;;;19.00;10.63;;;4.20;99.90;;;;;;5094103;28;20051;-74
2022/02/12 03:11:03;;;;;;;16.00;10.10;;;4.10;99.90;;;;;;5093361;28;20358;-75
2022/02/12 03:13:29;;;;;;;18.23;10.73;;;3.90;99.90;;;;;;5094913;28;20595;-74
2022/02/12 03:15:54;;;;;;;19.83;11.90;;;3.80;99.90;;;;;;5094842;28;20099;-74
2022/02/12 03:18:20;;;;;;;27.13;16.52;;;3.80;99.90;;;;;;5094794;28;20043;-74
2022/02/12 03:20:46;;;;;;;24.58;14.10;;;3.70;99.90;;;;;;5094793;28;20031;-74
2022/02/12 03:23:12;;;;;;;22.13;16.05;;;3.40;99.90;;;;;;5094969;28;20077;-75
2022/02/12 03:25:38;;;;;;;24.80;15.25;;;3.40;99.90;;;;;;5094693;28;20171;-75
2022/02/12 03:28:05;;;;;;;21.92;13.43;;;3.40;99.90;;;;;;5094518;28;20032;-74
2022/02/12 03:30:36;;;;;;;19.60;13.07;;;3.60;99.90;;;;;;5094558;28;20024;-75
2022/02/12 03:33:03;;;;;;;19.00;13.68;;;3.80;99.90;;;;;;5094524;28;20028;-74
2022/02/12 03:35:28;;;;;;;19.80;13.23;;;3.90;99.90;;;;;;5094718;28;20477;-75
2022/02/12 03:38:16;;;;;;;18.80;9.23;;;3.60;99.90;;;;;;5094369;28;20154;-74
2022/02/12 03:40:44;;;;;;;16.70;9.57;;;3.50;99.90;;;;;;5094726;28;20102;-73
2022/02/12 03:43:11;;;;;;;17.80;12.63;;;3.50;99.90;;;;;;5094330;28;20028;-75
2022/02/12 03:45:37;;;;;;;21.95;12.77;;;3.50;99.90;;;;;;5094308;28;20024;-75
2022/02/12 03:48:04;;;;;;;18.40;12.20;;;3.70;99.90;;;;;;5094128;28;20028;-73
2022/02/12 03:50:34;;;;;;;18.13;11.20;;;3.70;99.90;;;;;;5094144;28;20059;-74
2022/02/12 03:53:01;;;;;;;20.02;11.63;;;3.70;99.90;;;;;;5092908;28;20405;-76
2022/02/12 03:55:27;;;;;;;18.88;11.95;;;3.80;99.90;;;;;;5094302;28;20031;-74
2022/02/12 03:57:54;;;;;;;21.80;13.13;;;3.80;99.90;;;;;;5094063;28;20370;-76
2022/02/12 04:00:22;;;;;;;19.30;12.05;;;3.70;99.90;;;;;;5094006;28;20020;-74
2022/02/12 04:02:48;;;;;;;21.48;12.57;;;3.60;99.90;;;;;;5093805;28;20504;-74
2022/02/12 04:05:15;;;;;;;23.08;13.93;;;3.60;99.90;;;;;;5094275;28;20052;-74
2022/02/12 04:07:43;;;;;;;28.52;13.68;;;3.50;99.90;;;;;;5093821;28;20031;-75
2022/02/12 04:10:14;;;;;;;19.38;12.57;;;3.50;99.90;;;;;;5093842;28;20024;-75
2022/02/12 04:12:40;;;;;;;21.30;12.13;;;3.50;99.90;;;;;;5094371;28;20030;-75
2022/02/12 04:15:07;;;;;;;19.55;12.05;;;3.40;99.90;;;;;;5093773;28;20020;-75
2022/02/12 04:17:35;;;;;;;21.25;12.18;;;3.30;99.90;;;;;;5093999;28;20028;-73
2022/02/12 04:20:05;;;;;;;19.42;12.18;;;3.20;99.90;;;;;;5093303;28;20028;-75
2022/02/12 04:22:32;;;;;;;;;;;3.20;99.90;;;;;;5094714;28;20028;-75
2022/02/12 04:24:59;;;;;;;18.67;11.52;;;3.20;99.90;;;;;;5093638;28;19904;-73
2022/02/12 04:27:24;;;;;;;20.98;12.82;;;3.30;99.90;;;;;;5093480;28;20397;-75
2022/02/12 04:29:50;;;;;;;20.48;12.85;;;3.40;99.90;;;;;;5093567;28;20024;-75
2022/02/12 04:32:17;;;;;;;19.33;11.60;;;3.50;99.90;;;;;;5093515;28;20038;-74
2022/02/12 04:34:42;;;;;;;16.77;12.70;;;3.60;99.90;;;;;;5093465;28;20040;-75
2022/02/12 04:37:08;;;;;;;15.52;10.27;;;3.60;99.90;;;;;;5093400;28;20121;-74
2022/02/12 04:39:34;;;;;;;18.23;10.55;;;3.60;99.90;;;;;;5093457;28;20023;-75
2022/02/12 04:42:00;;;;;;;19.23;11.70;;;3.60;99.90;;;;;;5093380;28;20032;-74
2022/02/12 04:44:25;;;;;;;18.23;11.13;;;3.50;99.90;;;;;;5093650;28;20035;-74
2022/02/12 04:46:51;;;;;;;20.73;12.98;;;3.50;99.90;;;;;;5093547;28;20024;-74
2022/02/12 04:49:17;;;;;;;19.02;12.15;;;3.50;99.90;;;;;;5093368;28;20393;-74
2022/02/12 04:51:42;;;;;;;19.38;12.65;;;3.50;99.90;;;;;;5093362;28;20051;-75
2022/02/12 04:54:08;;;;;;;20.45;12.40;;;3.50;99.90;;;;;;5093416;28;20013;-73
2022/02/12 04:56:34;;;;;;;24.10;13.32;;;3.40;99.90;;;;;;5093516;28;20477;-73
2022/02/12 04:59:00;;;;;;;21.60;12.95;;;3.30;99.90;;;;;;5093207;28;20038;-75
2022/02/12 05:01:26;;;;;;;24.73;11.95;;;3.10;99.90;;;;;;5093200;28;20016;-75
2022/02/12 05:03:52;;;;;;;21.52;13.77;;;3.20;99.90;;;;;;5093126;28;20036;-74
2022/02/12 05:06:19;;;;;;;20.42;12.55;;;3.30;99.90;;;;;;5093144;28;20043;-74
2022/02/12 05:08:45;;;;;;;20.75;12.60;;;3.30;99.90;;;;;;5093073;28;20608;-73
2022/02/12 05:11:12;;;;;;;20.10;12.13;;;3.30;99.90;;;;;;5093125;28;20024;-76
2022/02/12 05:13:38;;;;;;;20.73;13.35;;;3.40;99.90;;;;;;5093425;28;20044;-75
2022/02/12 05:16:04;;;;;;;19.17;12.05;;;3.40;99.90;;;;;;5093047;28;20078;-74
2022/02/12 05:18:30;;;;;;;22.17;12.10;;;3.30;99.90;;;;;;5093602;28;20016;-74
2022/02/12 05:20:56;;;;;;;18.17;11.30;;;3.30;99.90;;;;;;5093268;28;20047;-74
2022/02/12 05:23:22;;;;;;;23.70;13.65;;;3.30;99.90;;;;;;5093042;28;20048;-74
2022/02/12 05:25:48;;;;;;;22.55;12.65;;;3.40;99.90;;;;;;5093035;28;20440;-74
2022/02/12 05:28:14;;;;;;;22.75;11.45;;;3.40;99.90;;;;;;5092880;28;20078;-75
2022/02/12 05:30:41;;;;;;;18.15;12.07;;;3.30;99.90;;;;;;5093260;28;20020;-74
2022/02/12 05:33:10;;;;;;;17.92;11.93;;;3.20;99.90;;;;;;5095227;28;20035;-74
2022/02/12 05:35:36;;;;;;;18.55;12.32;;;3.10;99.90;;;;;;5095499;28;20020;-74
2022/02/12 05:38:02;;;;;;;21.48;12.55;;;3.10;99.90;;;;;;5096803;28;20035;-73
2022/02/12 05:40:28;;;;;;;19.45;12.95;;;3.10;99.90;;;;;;5097033;28;20071;-74
2022/02/12 05:42:54;;;;;;;25.52;12.93;;;3.10;99.90;;;;;;5095366;28;20473;-75
2022/02/12 05:45:20;;;;;;;25.83;14.85;;;3.20;99.90;;;;;;5096929;28;20020;-75
2022/02/12 05:47:46;;;;;;;22.60;14.50;;;3.20;99.90;;;;;;5095244;28;20020;-74
2022/02/12 05:50:12;;;;;;;19.55;11.90;;;3.20;99.90;;;;;;5096303;28;20043;-74
2022/02/12 05:52:38;;;;;;;23.05;13.95;;;3.20;99.90;;;;;;5096501;28;20126;-73
2022/02/12 05:55:05;;;;;;;23.73;13.93;;;3.10;99.90;;;;;;5095105;28;20432;-74
2022/02/12 05:57:31;;;;;;;21.70;12.70;;;3.00;99.90;;;;;;5096695;28;20489;-74
2022/02/12 05:59:56;;;;;;;19.15;12.95;;;2.90;99.90;;;;;;5096334;28;20048;-75
2022/02/12 06:02:22;;;;;;;18.95;12.38;;;2.70;99.90;;;;;;5096550;28;20107;-75
2022/02/12 06:04:47;;;;;;;18.15;12.15;;;2.70;99.90;;;;;;5095887;28;20102;-74
2022/02/12 06:07:13;;;;;;;23.58;12.50;;;2.60;99.90;;;;;;5095819;28;20067;-75
2022/02/12 06:09:39;;;;;;;19.77;11.50;;;2.70;99.90;;;;;;5096369;28;20024;-75
2022/02/12 06:12:05;;;;;;;18.65;11.65;;;2.80;99.90;;;;;;5096105;28;20030;-74
2022/02/12 06:14:32;;;;;;;14.82;9.73;;;2.60;99.90;;;;;;5095954;28;20494;-74
2022/02/12 06:17:00;;;;;;;16.20;9.88;;;2.60;99.90;;;;;;5096017;28;20069;-73
2022/02/12 06:19:26;;;;;;;15.45;9.13;;;2.50;99.90;;;;;;5094706;28;20077;-74
2022/02/12 06:21:53;;;;;;;20.02;11.00;;;2.40;99.90;;;;;;5095948;28;20034;-75
2022/02/12 06:24:19;;;;;;;19.15;13.27;;;2.30;99.90;;;;;;5095881;28;20059;-75
2022/02/12 06:26:54;;;;;;;19.20;13.75;;;2.20;99.90;;;;;;5095802;28;20101;-74
2022/02/12 06:29:21;;;;;;;20.02;13.48;;;2.20;99.90;;;;;;5095850;28;20016;-74
2022/02/12 06:31:48;;;;;;;21.92;14.65;;;2.40;99.90;;;;;;5096327;28;20031;-74
2022/02/12 06:34:13;;;;;;;25.27;15.10;;;2.20;99.90;;;;;;5096017;28;20092;-74
2022/02/12 06:36:39;;;;;;;25.05;16.42;;;2.30;99.90;;;;;;5095608;28;20411;-74
2022/02/12 06:39:05;;;;;;;24.38;16.73;;;2.40;99.90;;;;;;5095608;28;20556;-74
2022/02/12 06:41:30;;;;;;;21.30;14.93;;;2.30;99.90;;;;;;5095548;28;20016;-73
2022/02/12 06:43:56;;;;;;;24.63;15.93;;;2.20;99.90;;;;;;5095565;28;20059;-75
2022/02/12 06:46:22;;;;;;;25.15;16.20;;;2.00;99.90;;;;;;5095794;28;20036;-75
2022/02/12 06:48:47;;;;;;;25.38;15.60;;;2.10;99.90;;;;;;5095350;28;20100;-75
2022/02/12 06:51:15;;;;;;;21.73;14.73;;;2.10;99.90;;;;;;5095424;28;20518;-75
2022/02/12 06:53:42;;;;;;;25.00;15.40;;;1.90;99.90;;;;;;5095240;28;20016;-73
2022/02/12 06:56:07;;;;;;;25.35;15.75;;;2.00;99.90;;;;;;5095297;28;20016;-73
2022/02/12 06:58:33;;;;;;;25.13;14.63;;;2.00;99.90;;;;;;5095256;28;20020;-74
2022/02/12 07:00:59;;;;;;;22.77;12.07;;;2.10;99.90;;;;;;5095484;28;20035;-74
2022/02/12 07:03:25;;;;;;;26.50;13.23;;;2.10;99.90;;;;;;5095155;28;20101;-75
2022/02/12 07:05:51;;;;;;;21.98;12.52;;;2.20;99.90;;;;;;5095425;28;20103;-73
2022/02/12 07:08:17;;;;;;;22.77;13.35;;;2.20;99.90;;;;;;5094738;28;20032;-75
2022/02/12 07:10:42;;;;;;;22.13;14.40;;;2.20;99.90;;;;;;5094990;28;20016;-73
2022/02/12 07:13:08;;;;;;;26.15;13.82;;;2.30;99.90;;;;;;5095215;28;20366;-74
2022/02/12 07:15:34;;;;;;;23.67;12.73;;;2.40;99.90;;;;;;5094865;28;20374;-74
2022/02/12 07:17:59;;;;;;;20.67;13.70;;;2.40;99.90;;;;;;5094840;28;20081;-75
2022/02/12 07:20:25;;;;;;;26.48;14.52;;;2.50;99.90;;;;;;5093510;28;20024;-74
2022/02/12 07:22:51;;;;;;;20.90;12.60;;;2.50;99.90;;;;;;5094738;28;20110;-73
2022/02/12 07:25:17;;;;;;;23.80;13.95;;;2.60;99.90;;;;;;5094498;28;20501;-74
2022/02/12 07:27:43;;;;;;;25.65;14.57;;;2.60;99.90;;;;;;5094601;28;20101;-73
2022/02/12 07:30:12;;;;;;;22.33;12.65;;;2.60;99.90;;;;;;5094622;28;20062;-76
2022/02/12 07:32:39;;;;;;;30.85;18.52;;;2.70;99.90;;;;;;5095112;28;20500;-74
2022/02/12 07:35:07;;;;;;;23.92;15.82;;;2.70;99.90;;;;;;5094550;28;20024;-73
2022/02/12 07:37:33;;;;;;;28.98;17.70;;;2.60;99.90;;;;;;5095057;28;20043;-74
2022/02/12 07:40:03;;;;;;;25.52;15.90;;;2.30;99.90;;;;;;5094679;28;20103;-74
2022/02/12 07:42:28;;;;;;;22.33;12.95;;;2.50;99.90;;;;;;5094343;28;20028;-74
2022/02/12 07:44:54;;;;;;;24.67;14.02;;;2.60;99.90;;;;;;5094606;28;20381;-74
2022/02/12 07:47:20;;;;;;;26.13;17.42;;;2.60;99.90;;;;;;5094475;28;20035;-74
2022/02/12 07:49:46;;;;;;;23.23;14.93;;;2.50;99.90;;;;;;5094257;28;20024;-73
2022/02/12 07:52:11;;;;;;;29.58;16.73;;;2.40;99.90;;;;;;5094428;28;20032;-74
2022/02/12 07:54:37;;;;;;;25.75;16.45;;;2.30;99.90;;;;;;5093860;28;20104;-73
2022/02/12 07:57:03;;;;;;;20.10;12.88;;;2.30;99.90;;;;;;5093912;28;20477;-75
2022/02/12 07:59:29;;;;;;;15.80;9.73;;;2.40;99.90;;;;;;5094640;28;20020;-74
2022/02/12 08:01:54;;;;;;;16.40;9.77;;;2.50;99.90;;;;;;5094316;28;20024;-74
2022/02/12 08:04:20;;;;;;;20.40;12.93;;;2.60;99.90;;;;;;5093848;28;20043;-74
2022/02/12 08:09:33;;;;;;;20.58;12.85;;;2.60;99.90;;;;;;5094223;28;20035;-74
2022/02/12 08:12:06;;;;;;;18.83;12.70;;;2.60;99.90;;;;;;5093831;28;20035;-74
2022/02/12 08:14:33;;;;;;;25.45;15.43;;;2.60;99.90;;;;;;5094111;28;20493;-75
2022/02/12 08:16:59;;;;;;;22.95;12.45;;;2.60;99.90;;;;;;5093770;28;20076;-74
2022/02/12 08:19:25;;;;;;;23.98;11.93;;;2.60;99.90;;;;;;5093718;28;20024;-74
2022/02/12 08:21:51;;;;;;;22.15;12.23;;;2.70;99.90;;;;;;5093702;28;20116;-75
2022/02/12 08:24:17;;;;;;;16.73;9.20;;;2.90;99.90;;;;;;5093686;28;20450;-74
2022/02/12 08:26:43;;;;;;;19.20;10.02;;;2.60;99.90;;;;;;5093573;28;20390;-75
2022/02/12 08:29:10;;;;;;;17.10;9.85;;;2.30;99.90;;;;;;5092280;28;20024;-75
2022/02/12 08:31:36;;;;;;;18.33;9.48;;;2.50;99.90;;;;;;5093543;28;20381;-75
2022/02/12 08:34:02;;;;;;;20.77;10.13;;;2.70;99.90;;;;;;5093511;28;20020;-74
2022/02/12 08:36:27;;;;;;;16.38;9.05;;;2.80;99.90;;;;;;5093494;28;20051;-75
2022/02/12 08:38:53;;;;;;;16.88;8.25;;;2.90;99.90;;;;;;5093488;28;20048;-74
2022/02/12 08:41:19;;;;;;;18.23;9.07;;;3.00;99.90;;;;;;5093462;28;20024;-75
2022/02/12 08:43:44;;;;;;;14.70;9.07;;;3.30;99.90;;;;;;5093434;28;20089;-75
2022/02/12 08:46:10;;;;;;;19.00;10.98;;;3.50;99.90;;;;;;5093394;28;20089;-74
2022/02/12 08:48:36;;;;;;;20.65;11.70;;;3.60;99.90;;;;;;5093330;28;20432;-75
2022/02/12 08:51:03;;;;;;;18.88;10.18;;;3.80;99.90;;;;;;5093543;28;20028;-74
2022/02/12 08:53:29;;;;;;;22.30;12.20;;;3.90;99.90;;;;;;5093279;28;20020;-75
2022/02/12 08:55:55;;;;;;;18.77;10.80;;;3.90;99.90;;;;;;5093151;28;20085;-74
2022/02/12 08:58:22;;;;;;;15.50;8.60;;;3.90;99.90;;;;;;5093544;28;20024;-74
2022/02/12 09:00:48;;;;;;;17.08;8.27;;;3.90;99.90;;;;;;5093538;28;20070;-74
2022/02/12 09:03:14;;;;;;;14.45;7.68;;;3.70;99.90;;;;;;5093415;28;20119;-74
2022/02/12 09:05:40;;;;;;;15.10;8.52;;;3.50;99.90;;;;;;5093251;28;20518;-75
2022/02/12 09:08:06;;;;;;;15.68;8.55;;;3.70;99.90;;;;;;5097011;28;20169;-74
2022/02/12 09:10:32;;;;;;;14.73;7.93;;;4.10;99.90;;;;;;5097317;28;20137;-74
2022/02/12 09:12:57;;;;;;;20.05;8.88;;;4.20;99.90;;;;;;5097282;28;20043;-74
2022/02/12 09:15:24;;;;;;;21.02;8.90;;;4.20;99.90;;;;;;5097190;28;20448;-75
2022/02/12 09:17:50;;;;;;;20.25;11.75;;;4.10;99.90;;;;;;5097187;28;20127;-75
2022/02/12 09:20:15;;;;;;;17.35;10.05;;;4.10;99.90;;;;;;5097385;28;20056;-75
2022/02/12 09:22:41;;;;;;;14.88;9.05;;;4.30;99.90;;;;;;5097342;28;20034;-75
2022/02/12 09:25:08;;;;;;;13.27;8.25;;;4.40;99.90;;;;;;5097025;28;20028;-75
2022/02/12 09:27:34;;;;;;;13.02;8.52;;;4.60;99.90;;;;;;5097208;28;20020;-76
2022/02/12 09:29:59;;;;;;;14.52;8.70;;;4.60;99.90;;;;;;5096956;28;20020;-74
2022/02/12 09:32:26;;;;;;;13.90;8.40;;;4.60;99.90;;;;;;5096900;28;20027;-74
2022/02/12 09:34:53;;;;;;;24.63;10.57;;;5.10;99.90;;;;;;5096839;28;20024;-74
2022/02/12 09:37:19;;;;;;;16.48;8.82;;;5.60;99.90;;;;;;5096841;28;20035;-74
2022/02/12 09:39:45;;;;;;;13.77;8.90;;;6.20;99.90;;;;;;5095850;28;20032;-74
2022/02/12 09:42:11;;;;;;;15.63;7.85;;;6.70;99.90;;;;;;5096647;28;20047;-75
2022/02/12 09:44:40;;;;;;;14.93;7.78;;;6.90;99.90;;;;;;5095429;28;20046;-76
2022/02/12 09:47:47;;;;;;;13.45;8.05;;;7.10;99.90;;;;;;5096387;28;20031;-75
2022/02/12 09:50:15;;;;;;;14.52;7.70;;;7.20;99.90;;;;;;5087133;28;20107;-75
2022/02/12 09:52:46;;;;;;;15.98;6.75;;;6.70;99.90;;;;;;5096773;28;20021;-78
2022/02/12 09:55:12;;;;;;;14.60;8.02;;;7.10;99.90;;;;;;5096902;28;20020;-74
2022/02/12 09:57:38;;;;;;;13.95;6.53;;;7.30;99.90;;;;;;5096701;28;20031;-81
2022/02/12 10:00:10;;;;;;;14.30;6.50;;;7.20;99.90;;;;;;5096682;28;20133;-78
2022/02/12 10:02:37;;;;;;;12.88;6.05;;;6.90;99.90;;;;;;5096045;28;20374;-74
2022/02/12 10:05:24;;;;;;;16.08;7.05;;;6.60;99.90;;;;;;5095729;28;20509;-79
2022/02/12 10:08:01;;;;;;;11.18;6.93;;;6.60;99.90;;;;;;5094529;28;20377;-73
2022/02/12 10:10:29;;;;;;;10.07;5.97;;;6.80;99.90;;;;;;5096166;28;20024;-77
2022/02/12 10:13:14;;;;;;;13.52;6.10;;;6.70;99.90;;;;;;5096103;28;20020;-74
2022/02/12 10:15:45;;;;;;;12.32;6.05;;;6.70;99.90;;;;;;5096086;28;20107;-74
2022/02/12 10:18:11;;;;;;;11.48;6.97;;;6.80;99.90;;;;;;5095682;28;20024;-72
2022/02/12 10:20:39;;;;;;;11.50;6.90;;;6.70;99.90;;;;;;5096392;28;20085;-72
2022/02/12 10:23:08;;;;;;;11.30;6.00;;;6.70;99.90;;;;;;5095854;28;20028;-72
2022/02/12 10:25:35;;;;;;;16.13;6.85;;;6.60;99.90;;;;;;5096041;28;20027;-74
2022/02/12 10:28:02;;;;;;;13.00;6.68;;;6.50;99.90;;;;;;5095532;28;20048;-73
2022/02/12 10:30:29;;;;;;;12.48;6.10;;;6.50;99.90;;;;;;5094436;28;20397;-74
2022/02/12 10:33:01;;;;;;;14.80;8.50;;;6.50;99.90;;;;;;5095972;28;20020;-74
2022/02/12 10:35:28;;;;;;;13.40;6.15;;;6.30;99.90;;;;;;5095734;28;20052;-74
2022/02/12 10:37:59;;;;;;;18.73;7.85;;;6.30;99.90;;;;;;5094243;28;20111;-74
2022/02/12 10:40:27;;;;;;;13.93;6.57;;;6.40;99.90;;;;;;5095862;28;20073;-75
2022/02/12 10:42:53;;;;;;;10.82;6.93;;;6.40;99.90;;;;;;5095952;28;20111;-75
2022/02/12 10:45:19;;;;;;;11.40;7.22;;;6.30;99.90;;;;;;5095463;28;20456;-73
2022/02/12 10:47:46;;;;;;;13.63;6.78;;;6.20;99.90;;;;;;5095663;28;20024;-74
2022/02/12 10:50:14;;;;;;;13.43;6.63;;;6.20;99.90;;;;;;5095403;28;20467;-74
2022/02/12 10:52:40;;;;;;;10.63;6.88;;;6.20;99.90;;;;;;5095523;28;20020;-74
2022/02/12 10:55:07;;;;;;;12.77;6.10;;;6.20;99.90;;;;;;5094400;28;20427;-73
2022/02/12 10:57:38;;;;;;;14.30;5.93;;;6.20;99.90;;;;;;5093725;28;20020;-76
2022/02/12 11:00:05;;;;;;;14.63;5.63;;;6.20;99.90;;;;;;5095807;28;20024;-73
2022/02/12 11:02:33;;;;;;;11.65;5.75;;;6.20;99.90;;;;;;5095732;28;20020;-75
2022/02/12 11:05:00;;;;;;;13.02;5.85;;;6.10;99.90;;;;;;5093244;28;20508;-76
2022/02/12 11:07:27;;;;;;;11.95;6.60;;;6.10;99.90;;;;;;5094952;28;20017;-76
2022/02/12 11:09:54;;;;;;;13.45;6.57;;;6.20;99.90;;;;;;5095202;28;20024;-73
2022/02/12 11:12:22;;;;;;;11.25;6.93;;;6.30;99.90;;;;;;5094950;28;20018;-73
2022/02/12 11:14:48;;;;;;;10.82;6.20;;;6.30;99.90;;;;;;5094941;28;20020;-73
2022/02/12 11:17:17;;;;;;;10.30;5.88;;;6.30;99.90;;;;;;5094894;28;20095;-74
2022/02/12 11:19:44;;;;;;;12.35;5.82;;;6.30;99.90;;;;;;5094899;28;20051;-73
2022/02/12 11:22:11;;;;;;;12.77;6.15;;;6.40;99.90;;;;;;5092517;28;20060;-73
2022/02/12 11:24:40;;;;;;;11.90;6.50;;;6.40;99.90;;;;;;5093328;28;20028;-73
2022/02/12 11:27:29;;;;;;;12.13;6.22;;;6.30;99.90;;;;;;5094604;28;20055;-73
2022/02/12 11:29:56;;;;;;;9.40;5.45;;;6.30;99.90;;;;;;5093986;28;20024;-73
2022/02/12 11:32:24;;;;;;;11.55;5.72;;;6.40;99.90;;;;;;5094599;28;20016;-73
2022/02/12 11:34:55;;;;;;;12.05;6.22;;;6.30;99.90;;;;;;5094549;28;20052;-73
2022/02/12 11:37:21;;;;;;;10.23;5.80;;;6.30;99.90;;;;;;5094477;28;20020;-73
2022/02/12 11:40:18;;;;;;;11.27;5.80;;;6.20;99.90;;;;;;5094480;28;20059;-73
2022/02/12 11:42:54;;;;;;;10.35;6.68;;;6.20;99.90;;;;;;5093142;28;20028;-73
2022/02/12 11:45:38;;;;;;;12.02;5.82;;;6.30;99.90;;;;;;5092805;28;20028;-73
2022/02/12 11:48:25;;;;;;;10.68;6.30;;;6.40;99.90;;;;;;5094526;28;20028;-73
2022/02/12 11:50:59;;;;;;;17.77;6.47;;;6.50;99.90;;;;;;5094569;28;20458;-73
2022/02/12 11:53:54;;;;;;;11.65;6.50;;;6.60;99.90;;;;;;5094482;28;20488;-73
2022/02/12 11:56:20;;;;;;;13.90;7.45;;;6.60;99.90;;;;;;5094479;28;20023;-73
2022/02/12 11:58:45;;;;;;;10.90;6.57;;;6.70;99.90;;;;;;5094389;28;20035;-73
2022/02/12 12:01:24;;;;;;;12.57;6.40;;;6.70;99.90;;;;;;5094034;28;20035;-73
2022/02/12 12:04:14;;;;;;;16.02;6.30;;;6.80;99.90;;;;;;5093858;28;20041;-73
2022/02/12 12:07:07;;;;;;;12.35;6.40;;;6.80;99.90;;;;;;5094064;28;20020;-73
2022/02/12 12:09:58;;;;;;;11.02;6.07;;;6.80;99.90;;;;;;5092403;28;20079;-73
2022/02/12 12:12:24;;;;;;;13.70;6.15;;;6.80;99.90;;;;;;5083961;28;20080;-73
2022/02/12 12:15:17;;;;;;;14.98;6.25;;;6.80;99.90;;;;;;5093827;28;20103;-73
2022/02/12 12:17:42;;;;;;;11.80;6.13;;;6.80;99.90;;;;;;5094351;28;20012;-73
2022/02/12 12:20:10;;;;;;;15.63;6.63;;;6.80;99.90;;;;;;5093734;28;20035;-73
2022/02/12 12:22:36;;;;;;;12.25;5.80;;;6.90;99.90;;;;;;5092437;28;20028;-73
2022/02/12 12:25:02;;;;;;;11.27;6.15;;;6.90;99.90;;;;;;5094184;28;20024;-73
2022/02/12 12:27:33;;;;;;;10.70;5.80;;;6.90;99.90;;;;;;5093505;28;20024;-73
2022/02/12 12:32:59;;;;;;;18.10;6.93;;;7.00;99.90;;;;;;5093622;28;20494;-73
2022/02/12 12:35:25;;;;;;;9.20;5.95;;;7.00;99.90;;;;;;5093809;28;20099;-73
2022/02/12 12:37:51;;;;;;;10.45;5.88;;;7.00;99.90;;;;;;5093499;28;20417;-73
2022/02/12 12:40:26;;;;;;;12.57;6.30;;;7.00;99.90;;;;;;5093486;28;20016;-73
2022/02/12 12:43:03;;;;;;;11.45;6.72;;;7.10;99.90;;;;;;5093245;28;20459;-73
2022/02/12 12:45:29;;;;;;;10.75;6.00;;;7.10;99.90;;;;;;5093706;28;20036;-73
2022/02/12 12:47:58;;;;;;;10.98;6.60;;;7.20;99.90;;;;;;5093615;28;20028;-73
2022/02/12 12:50:32;;;;;;;14.15;6.80;;;7.30;99.90;;;;;;5093647;28;20051;-73
2022/02/12 12:53:12;;;;;;;16.08;6.68;;;7.30;99.90;;;;;;5093440;28;20028;-73
2022/02/12 12:55:44;;;;;;;11.13;6.25;;;7.30;99.90;;;;;;5091941;28;20392;-73